Time;durP1;ratioP1;P1;durP2;ratioP2;P2;SDS_P1;SDS_P2;PMS_P1;PMS_P2;Temp;Humidity;BMP_temperature;BMP_pressure;BME280_temperature;BME280_humidity;BME280_pressure;Samples;Min_cycle;Max_cycle;Signal;HPM_P1;HPM_P2
2023/07/22 00:00:13;;;;;;;2.28;2.17;;;;;;;;;;5015293;28;20057;-55
2023/07/22 00:02:39;;;;;;;2.35;2.20;;;;;;;;;;5014692;28;20045;-55
2023/07/22 00:05:04;;;;;;;2.50;2.30;;;;;;;;;;5015197;28;20042;-55
2023/07/22 00:07:29;;;;;;;2.90;2.67;;;;;;;;;;5015373;28;20072;-55
2023/07/22 00:09:55;;;;;;;2.40;2.20;;;;;;;;;;5014620;28;20088;-55
2023/07/22 00:12:24;;;;;;;3.55;2.80;;;;;;;;;;5014911;28;20026;-55
2023/07/22 00:14:50;;;;;;;3.15;2.70;;;;;;;;;;5015080;28;20105;-55
2023/07/22 00:17:15;;;;;;;2.80;2.60;;;;;;;;;;5015221;28;20117;-55
2023/07/22 00:19:40;;;;;;;2.60;2.35;;;;;;;;;;5015197;28;20017;-55
2023/07/22 00:22:06;;;;;;;2.80;2.60;;;;;;;;;;5015181;28;20581;-55
2023/07/22 00:24:32;;;;;;;3.00;2.80;;;;;;;;;;5014812;28;20073;-55
2023/07/22 00:26:57;;;;;;;3.10;2.67;;;;;;;;;;5013814;28;20037;-55
2023/07/22 00:29:22;;;;;;;3.35;3.05;;;;;;;;;;5013851;28;20061;-55
2023/07/22 00:31:49;;;;;;;3.25;2.97;;;;;;;;;;5014315;28;20184;-55
2023/07/22 00:34:14;;;;;;;3.22;3.00;;;;;;;;;;5015177;28;20084;-55
2023/07/22 00:36:39;;;;;;;3.33;3.03;;;;;;;;;;5014603;28;20030;-55
2023/07/22 00:39:05;;;;;;;3.50;3.30;;;;;;;;;;5014335;28;20105;-55
2023/07/22 00:41:30;;;;;;;3.40;3.15;;;;;;;;;;5014507;28;20034;-55
2023/07/22 00:43:56;;;;;;;3.55;3.25;;;;;;;;;;5014743;28;20034;-55
2023/07/22 00:46:22;;;;;;;3.22;2.97;;;;;;;;;;5014463;28;20061;-55
2023/07/22 00:48:48;;;;;;;3.35;3.15;;;;;;;;;;4996786;28;20459;-55
2023/07/22 00:51:13;;;;;;;3.28;3.08;;;;;;;;;;5014636;28;20084;-55
2023/07/22 00:53:39;;;;;;;3.45;3.15;;;;;;;;;;5029513;28;20026;-55
2023/07/22 00:56:04;;;;;;;3.35;3.05;;;;;;;;;;5013031;28;20029;-55
2023/07/22 00:58:29;;;;;;;3.80;3.50;;;;;;;;;;5014227;28;20029;-55
2023/07/22 01:00:55;;;;;;;3.17;2.97;;;;;;;;;;5012937;28;20026;-55
2023/07/22 01:03:20;;;;;;;3.35;3.15;;;;;;;;;;5012684;28;20434;-55
2023/07/22 01:05:47;;;;;;;3.40;3.10;;;;;;;;;;5012898;28;20029;-55
2023/07/22 01:08:13;;;;;;;3.55;3.28;;;;;;;;;;5012884;28;20490;-55
2023/07/22 01:10:38;;;;;;;3.70;3.40;;;;;;;;;;5014031;28;20182;-55
2023/07/22 01:13:04;;;;;;;3.65;3.03;;;;;;;;;;5046082;28;20033;-55
2023/07/22 01:15:29;;;;;;;3.17;2.92;;;;;;;;;;5013585;28;20030;-55
2023/07/22 01:17:56;;;;;;;3.20;3.00;;;;;;;;;;5012744;28;20025;-55
2023/07/22 01:20:21;;;;;;;3.47;2.83;;;;;;;;;;5013980;28;20120;-55
2023/07/22 01:22:51;;;;;;;3.35;3.15;;;;;;;;;;5013906;28;20120;-55
2023/07/22 01:25:17;;;;;;;3.45;3.25;;;;;;;;;;5014101;28;20026;-55
2023/07/22 01:27:44;;;;;;;3.58;3.28;;;;;;;;;;5012646;28;20030;-55
2023/07/22 01:30:09;;;;;;;3.95;3.65;;;;;;;;;;5012584;28;20116;-55
2023/07/22 01:32:35;;;;;;;4.10;3.70;;;;;;;;;;5029761;28;20080;-55
2023/07/22 01:35:00;;;;;;;4.10;3.80;;;;;;;;;;5014082;28;20026;-55
2023/07/22 01:37:25;;;;;;;4.18;3.38;;;;;;;;;;5012574;28;20438;-55
2023/07/22 01:39:51;;;;;;;3.95;3.58;;;;;;;;;;5012391;28;20046;-55
2023/07/22 01:42:16;;;;;;;4.07;3.70;;;;;;;;;;5013750;28;20462;-55
2023/07/22 01:44:42;;;;;;;5.68;3.70;;;;;;;;;;5045939;28;20100;-55
2023/07/22 01:47:07;;;;;;;4.05;3.65;;;;;;;;;;5013982;28;20095;-55
2023/07/22 01:49:34;;;;;;;3.72;3.42;;;;;;;;;;5013057;28;20112;-55
2023/07/22 01:52:00;;;;;;;4.30;3.80;;;;;;;;;;5012425;28;20030;-55
2023/07/22 01:54:25;;;;;;;6.20;3.90;;;;;;;;;;5013855;28;20034;-55
2023/07/22 01:56:51;;;;;;;3.60;3.38;;;;;;;;;;5014143;28;20373;-55
2023/07/22 01:59:16;;;;;;;4.65;3.83;;;;;;;;;;5012371;28;20026;-55
2023/07/22 02:01:41;;;;;;;4.13;3.72;;;;;;;;;;5013557;28;20537;-55
2023/07/22 02:04:07;;;;;;;4.90;3.83;;;;;;;;;;5013828;28;20041;-55
2023/07/22 02:06:32;;;;;;;4.00;3.70;;;;;;;;;;5013511;28;20029;-55
2023/07/22 02:08:57;;;;;;;3.72;3.42;;;;;;;;;;5012268;28;20026;-55
2023/07/22 02:11:23;;;;;;;3.85;3.55;;;;;;;;;;5013763;28;20026;-55
2023/07/22 02:13:48;;;;;;;4.20;3.90;;;;;;;;;;5012132;28;20045;-55
2023/07/22 02:16:13;;;;;;;3.72;3.42;;;;;;;;;;5013568;28;20014;-55
2023/07/22 02:18:39;;;;;;;4.18;3.88;;;;;;;;;;5017095;28;20060;-55
2023/07/22 02:21:05;;;;;;;4.65;3.60;;;;;;;;;;5016009;28;20036;-55
2023/07/22 02:23:30;;;;;;;4.22;3.92;;;;;;;;;;5017089;28;20025;-55
2023/07/22 02:25:56;;;;;;;3.95;3.55;;;;;;;;;;5015864;28;20030;-55
2023/07/22 02:28:22;;;;;;;4.25;3.63;;;;;;;;;;5016999;28;20103;-55
2023/07/22 02:30:49;;;;;;;4.22;3.92;;;;;;;;;;5017273;28;20030;-55
2023/07/22 02:33:14;;;;;;;4.50;3.78;;;;;;;;;;5016830;28;20037;-55
2023/07/22 02:35:42;;;;;;;5.13;4.30;;;;;;;;;;5016854;28;20385;-55
2023/07/22 02:38:08;;;;;;;4.63;4.10;;;;;;;;;;5015391;28;20026;-55
2023/07/22 02:40:36;;;;;;;7.97;4.50;;;;;;;;;;5017091;28;20056;-55
2023/07/22 02:43:03;;;;;;;4.50;4.10;;;;;;;;;;5015473;28;20037;-55
2023/07/22 02:45:28;;;;;;;4.45;4.05;;;;;;;;;;5017001;28;20041;-55
2023/07/22 02:47:54;;;;;;;5.00;4.20;;;;;;;;;;5016617;28;20038;-55
2023/07/22 02:50:19;;;;;;;4.57;4.03;;;;;;;;;;5015217;28;20033;-55
2023/07/22 02:52:45;;;;;;;4.60;4.18;;;;;;;;;;5048356;28;20496;-55
2023/07/22 02:55:10;;;;;;;4.50;4.10;;;;;;;;;;5016801;28;20025;-55
2023/07/22 02:57:36;;;;;;;4.65;4.18;;;;;;;;;;5016763;28;20487;-55
2023/07/22 03:00:07;;;;;;;4.45;3.90;;;;;;;;;;5016414;28;20453;-55
2023/07/22 03:02:32;;;;;;;4.70;4.30;;;;;;;;;;5015161;28;20026;-55
2023/07/22 03:04:57;;;;;;;7.50;4.88;;;;;;;;;;5015142;28;20484;-55
2023/07/22 03:07:23;;;;;;;6.95;4.25;;;;;;;;;;5016840;28;20119;-55
2023/07/22 03:09:48;;;;;;;5.85;4.72;;;;;;;;;;5016572;28;20033;-55
2023/07/22 03:12:13;;;;;;;5.55;4.22;;;;;;;;;;5014962;28;20108;-55
2023/07/22 03:14:39;;;;;;;5.10;4.20;;;;;;;;;;5014619;28;20488;-55
2023/07/22 03:17:04;;;;;;;5.15;4.65;;;;;;;;;;5014875;28;20159;-55
2023/07/22 03:19:29;;;;;;;5.30;4.88;;;;;;;;;;5016365;28;20030;-55
2023/07/22 03:21:55;;;;;;;5.20;4.70;;;;;;;;;;5014858;28;20041;-55
2023/07/22 03:24:20;;;;;;;7.93;4.88;;;;;;;;;;5016246;28;20049;-55
2023/07/22 03:26:46;;;;;;;5.65;4.95;;;;;;;;;;5015358;28;20528;-55
2023/07/22 03:29:11;;;;;;;5.22;4.75;;;;;;;;;;5015961;28;20156;-55
2023/07/22 03:31:36;;;;;;;5.57;4.90;;;;;;;;;;5014615;28;20521;-55
2023/07/22 03:34:02;;;;;;;5.57;5.07;;;;;;;;;;5016276;28;20038;-55
2023/07/22 03:36:28;;;;;;;5.95;5.00;;;;;;;;;;5015708;28;20385;-55
2023/07/22 03:38:53;;;;;;;5.78;5.28;;;;;;;;;;5014434;28;20482;-55
2023/07/22 03:41:18;;;;;;;5.30;4.85;;;;;;;;;;5015965;28;20030;-55
2023/07/22 03:43:44;;;;;;;5.97;5.28;;;;;;;;;;5015918;28;20038;-55
2023/07/22 03:46:09;;;;;;;5.50;5.00;;;;;;;;;;5015882;28;20040;-55
2023/07/22 03:48:35;;;;;;;6.05;5.43;;;;;;;;;;5015541;28;20445;-55
2023/07/22 03:51:00;;;;;;;5.95;5.22;;;;;;;;;;5015780;28;20105;-55
2023/07/22 03:53:25;;;;;;;5.97;5.38;;;;;;;;;;5014139;28;20030;-54
2023/07/22 03:55:50;;;;;;;6.07;5.50;;;;;;;;;;5015665;28;20020;-55
2023/07/22 03:58:16;;;;;;;6.20;5.38;;;;;;;;;;5015265;28;20034;-55
2023/07/22 04:00:42;;;;;;;6.28;5.10;;;;;;;;;;5015258;28;20033;-55
2023/07/22 04:03:08;;;;;;;6.30;5.22;;;;;;;;;;5015511;28;20030;-55
2023/07/22 04:05:34;;;;;;;6.30;5.00;;;;;;;;;;5014287;28;20076;-55
2023/07/22 04:07:59;;;;;;;5.63;5.00;;;;;;;;;;5015144;28;20470;-55
2023/07/22 04:10:24;;;;;;;6.07;5.25;;;;;;;;;;5013883;28;20029;-55
2023/07/22 04:12:49;;;;;;;6.25;5.65;;;;;;;;;;5015252;28;20026;-55
2023/07/22 04:15:15;;;;;;;5.88;5.38;;;;;;;;;;5014930;28;20060;-55
2023/07/22 04:17:40;;;;;;;6.47;5.80;;;;;;;;;;5015480;28;20026;-55
2023/07/22 04:20:08;;;;;;;6.13;5.60;;;;;;;;;;5014914;28;20462;-55
2023/07/22 04:22:34;;;;;;;7.53;6.00;;;;;;;;;;5014841;28;20030;-54
2023/07/22 04:25:00;;;;;;;6.75;6.05;;;;;;;;;;4997206;28;20394;-55
2023/07/22 04:27:26;;;;;;;6.60;5.95;;;;;;;;;;5014836;28;20030;-55
2023/07/22 04:29:52;;;;;;;9.02;6.63;;;;;;;;;;5014742;28;20022;-55
2023/07/22 04:32:17;;;;;;;8.82;6.40;;;;;;;;;;5014963;28;20049;-55
2023/07/22 04:34:42;;;;;;;7.65;6.45;;;;;;;;;;5014619;28;20393;-55
2023/07/22 04:37:09;;;;;;;7.93;7.18;;;;;;;;;;5014642;28;20437;-55
2023/07/22 04:39:34;;;;;;;8.18;7.43;;;;;;;;;;5014146;28;20046;-55
2023/07/22 04:41:59;;;;;;;8.40;7.57;;;;;;;;;;5013309;28;20484;-55
2023/07/22 04:44:25;;;;;;;10.95;7.53;;;;;;;;;;5013414;28;20034;-55
2023/07/22 04:46:50;;;;;;;6.43;5.82;;;;;;;;;;5014435;28;20390;-55
2023/07/22 04:49:17;;;;;;;7.90;6.70;;;;;;;;;;5014964;28;20021;-55
2023/07/22 04:51:44;;;;;;;7.38;6.53;;;;;;;;;;5014662;28;20400;-55
2023/07/22 04:54:09;;;;;;;8.40;6.82;;;;;;;;;;5014310;28;20371;-55
2023/07/22 04:56:34;;;;;;;7.63;6.82;;;;;;;;;;5014318;28;20029;-55
2023/07/22 04:59:00;;;;;;;6.75;6.03;;;;;;;;;;5012778;28;20112;-55
2023/07/22 05:01:26;;;;;;;6.57;5.45;;;;;;;;;;5013607;28;20390;-55
2023/07/22 05:03:51;;;;;;;6.60;5.68;;;;;;;;;;5014207;28;20033;-55
2023/07/22 05:06:17;;;;;;;6.53;5.90;;;;;;;;;;5014147;28;20462;-55
2023/07/22 05:08:43;;;;;;;9.32;5.70;;;;;;;;;;5014429;28;20030;-54
2023/07/22 05:11:08;;;;;;;6.13;5.63;;;;;;;;;;5014116;28;20590;-55
2023/07/22 05:13:33;;;;;;;5.72;5.05;;;;;;;;;;5013973;28;20034;-55
2023/07/22 05:15:58;;;;;;;5.53;4.95;;;;;;;;;;5014079;28;20068;-55
2023/07/22 05:18:24;;;;;;;6.18;5.60;;;;;;;;;;5014182;28;20034;-55
2023/07/22 05:20:49;;;;;;;7.22;5.10;;;;;;;;;;5014524;28;20038;-55
2023/07/22 05:23:14;;;;;;;7.63;5.57;;;;;;;;;;5013960;28;20038;-55
2023/07/22 05:25:39;;;;;;;6.05;5.55;;;;;;;;;;5014206;28;20103;-55
2023/07/22 05:28:05;;;;;;;6.32;5.47;;;;;;;;;;5014100;28;20097;-55
2023/07/22 05:30:31;;;;;;;6.13;5.60;;;;;;;;;;5013845;28;20025;-55
2023/07/22 05:32:56;;;;;;;6.75;5.90;;;;;;;;;;5013756;28;20014;-55
2023/07/22 05:35:21;;;;;;;7.55;5.72;;;;;;;;;;5014075;28;20053;-55
2023/07/22 05:37:46;;;;;;;6.18;5.65;;;;;;;;;;5013822;28;20428;-55
2023/07/22 05:40:13;;;;;;;6.38;5.80;;;;;;;;;;5013614;28;20505;-55
2023/07/22 05:42:38;;;;;;;6.60;5.65;;;;;;;;;;5013808;28;20026;-55
2023/07/22 05:45:03;;;;;;;5.72;5.22;;;;;;;;;;5014026;28;20036;-55
2023/07/22 05:47:29;;;;;;;6.40;5.78;;;;;;;;;;5013991;28;20044;-55
2023/07/22 05:49:55;;;;;;;5.85;5.32;;;;;;;;;;5013707;28;20026;-55
2023/07/22 05:52:20;;;;;;;5.78;5.25;;;;;;;;;;5016955;28;20037;-55
2023/07/22 05:54:45;;;;;;;5.55;5.05;;;;;;;;;;5018167;28;20072;-55
2023/07/22 05:57:11;;;;;;;6.03;5.45;;;;;;;;;;5017890;28;20030;-55
2023/07/22 05:59:36;;;;;;;6.50;6.00;;;;;;;;;;5016957;28;20048;-55
2023/07/22 06:02:02;;;;;;;5.25;4.78;;;;;;;;;;5017792;28;20057;-55
2023/07/22 06:04:28;;;;;;;5.30;4.80;;;;;;;;;;5017805;28;20018;-55
2023/07/22 06:06:53;;;;;;;5.30;4.82;;;;;;;;;;5017765;28;20038;-55
2023/07/22 06:09:19;;;;;;;4.35;4.00;;;;;;;;;;5018002;28;20030;-55
2023/07/22 06:11:45;;;;;;;4.70;3.67;;;;;;;;;;5017514;28;20100;-55
2023/07/22 06:14:10;;;;;;;4.05;3.70;;;;;;;;;;5017202;28;20108;-55
2023/07/22 06:16:35;;;;;;;4.13;3.72;;;;;;;;;;5017269;28;20449;-55
2023/07/22 06:19:01;;;;;;;3.65;3.45;;;;;;;;;;5017363;28;20029;-55
2023/07/22 06:21:26;;;;;;;3.88;3.45;;;;;;;;;;5017189;28;20355;-55
2023/07/22 06:23:51;;;;;;;3.38;3.08;;;;;;;;;;5017616;28;20022;-55
2023/07/22 06:26:17;;;;;;;4.05;3.55;;;;;;;;;;5017369;28;20033;-55
2023/07/22 06:28:42;;;;;;;4.05;3.75;;;;;;;;;;5017196;28;20041;-55
2023/07/22 06:31:07;;;;;;;3.95;3.67;;;;;;;;;;5017519;28;20022;-55
2023/07/22 06:33:33;;;;;;;4.10;3.35;;;;;;;;;;5016891;28;20458;-55
2023/07/22 06:35:59;;;;;;;3.72;3.10;;;;;;;;;;5017174;28;20114;-55
2023/07/22 06:38:24;;;;;;;3.88;3.28;;;;;;;;;;5016930;28;20045;-55
2023/07/22 06:40:51;;;;;;;4.68;3.13;;;;;;;;;;5015576;28;20034;-55
2023/07/22 06:43:17;;;;;;;4.22;2.85;;;;;;;;;;5017037;28;20026;-55
2023/07/22 06:45:43;;;;;;;2.80;2.60;;;;;;;;;;5017277;28;20029;-55
2023/07/22 06:48:08;;;;;;;2.90;2.67;;;;;;;;;;5016948;28;20034;-55
2023/07/22 06:50:33;;;;;;;2.53;2.42;;;;;;;;;;5015716;28;20041;-54
2023/07/22 06:52:59;;;;;;;2.88;2.67;;;;;;;;;;5016779;28;20069;-55
2023/07/22 06:55:24;;;;;;;2.58;2.17;;;;;;;;;;5015315;28;20080;-55
2023/07/22 06:57:49;;;;;;;2.55;2.35;;;;;;;;;;5015606;28;20073;-55
2023/07/22 07:00:16;;;;;;;3.55;2.40;;;;;;;;;;5015867;28;20022;-55
2023/07/22 07:02:41;;;;;;;2.53;2.20;;;;;;;;;;5016514;28;20038;-55
2023/07/22 07:05:06;;;;;;;4.22;2.25;;;;;;;;;;5016634;28;20034;-54
2023/07/22 07:07:32;;;;;;;2.83;2.50;;;;;;;;;;5016284;28;20034;-55
2023/07/22 07:09:58;;;;;;;3.55;2.42;;;;;;;;;;5016318;28;20033;-54
2023/07/22 07:12:23;;;;;;;2.55;2.25;;;;;;;;;;5016116;28;20030;-55
2023/07/22 07:14:53;;;;;;;2.20;2.10;;;;;;;;;;5014868;28;20052;-54
2023/07/22 07:17:18;;;;;;;2.37;2.17;;;;;;;;;;5016473;28;20389;-55
2023/07/22 07:19:43;;;;;;;2.47;2.30;;;;;;;;;;5015188;28;20267;-55
2023/07/22 07:22:08;;;;;;;3.40;2.55;;;;;;;;;;5016079;28;20025;-55
2023/07/22 07:24:34;;;;;;;2.40;2.30;;;;;;;;;;5015890;28;20393;-55
2023/07/22 07:26:59;;;;;;;2.30;2.05;;;;;;;;;;5015948;28;20034;-55
2023/07/22 07:29:24;;;;;;;3.03;2.47;;;;;;;;;;5014709;28;20034;-55
2023/07/22 07:31:49;;;;;;;2.50;2.33;;;;;;;;;;5016151;28;20117;-55
2023/07/22 07:34:15;;;;;;;2.50;2.33;;;;;;;;;;5016109;28;20037;-55
2023/07/22 07:36:40;;;;;;;2.60;2.40;;;;;;;;;;5016045;28;20041;-54
2023/07/22 07:39:05;;;;;;;3.92;3.53;;;;;;;;;;5015719;28;20042;-54
2023/07/22 07:41:31;;;;;;;3.40;2.45;;;;;;;;;;5015838;28;20038;-55
2023/07/22 07:43:56;;;;;;;2.75;2.55;;;;;;;;;;5015923;28;20097;-55
2023/07/22 07:46:26;;;;;;;3.17;2.97;;;;;;;;;;5015571;28;20481;-55
2023/07/22 07:48:54;;;;;;;2.83;2.63;;;;;;;;;;5015825;28;20120;-54
2023/07/22 07:51:20;;;;;;;2.90;2.60;;;;;;;;;;5016051;28;20048;-54
2023/07/22 07:53:49;;;;;;;2.85;2.65;;;;;;;;;;5015680;28;20117;-55
2023/07/22 07:56:15;;;;;;;3.20;2.90;;;;;;;;;;5015449;28;20425;-55
2023/07/22 07:58:40;;;;;;;6.20;4.28;;;;;;;;;;5015336;28;20022;-55
2023/07/22 08:01:07;;;;;;;5.05;3.47;;;;;;;;;;5015324;28;20458;-54
2023/07/22 08:03:33;;;;;;;4.03;3.58;;;;;;;;;;5015443;28;20026;-55
2023/07/22 08:05:58;;;;;;;2.95;2.75;;;;;;;;;;5015547;28;20037;-55
2023/07/22 08:08:23;;;;;;;2.50;2.17;;;;;;;;;;5015175;28;20424;-55
2023/07/22 08:11:05;;;;;;;2.20;2.10;;;;;;;;;;5014537;28;20042;-55
2023/07/22 08:13:31;;;;;;;2.17;1.80;;;;;;;;;;5014258;28;20371;-54
2023/07/22 08:15:57;;;;;;;1.92;1.80;;;;;;;;;;5015104;28;20084;-55
2023/07/22 08:18:22;;;;;;;2.22;1.85;;;;;;;;;;5015011;28;20030;-55
2023/07/22 08:20:47;;;;;;;1.60;1.50;;;;;;;;;;5014953;28;20051;-55
2023/07/22 08:23:13;;;;;;;1.77;1.67;;;;;;;;;;5013766;28;20056;-55
2023/07/22 08:25:38;;;;;;;2.22;1.70;;;;;;;;;;5015425;28;20061;-55
2023/07/22 08:28:04;;;;;;;2.00;1.80;;;;;;;;;;5014859;28;20091;-54
2023/07/22 08:30:30;;;;;;;1.70;1.60;;;;;;;;;;5015084;28;20045;-55
2023/07/22 08:32:55;;;;;;;1.65;1.58;;;;;;;;;;5014962;28;20025;-55
2023/07/22 08:35:22;;;;;;;3.20;1.98;;;;;;;;;;5014999;28;20034;-54
2023/07/22 08:37:47;;;;;;;1.45;1.40;;;;;;;;;;5014640;28;20458;-55
2023/07/22 08:40:12;;;;;;;4.22;1.77;;;;;;;;;;5014462;28;20045;-55
2023/07/22 08:42:38;;;;;;;2.53;2.33;;;;;;;;;;5014579;28;20085;-55
2023/07/22 08:45:04;;;;;;;4.72;2.80;;;;;;;;;;5014530;28;20434;-55
2023/07/22 08:47:29;;;;;;;2.15;1.73;;;;;;;;;;5014810;28;20033;-55
2023/07/22 08:49:57;;;;;;;2.10;1.95;;;;;;;;;;5014703;28;20105;-55
2023/07/22 08:52:22;;;;;;;2.63;2.28;;;;;;;;;;5014723;28;20034;-54
2023/07/22 08:54:48;;;;;;;2.58;2.42;;;;;;;;;;5014183;28;20389;-55
2023/07/22 08:57:14;;;;;;;1.70;1.60;;;;;;;;;;5014333;28;20010;-55
2023/07/22 08:59:40;;;;;;;1.60;1.50;;;;;;;;;;5014329;28;20121;-55
2023/07/22 09:02:10;;;;;;;2.22;2.08;;;;;;;;;;5014575;28;20033;-55
2023/07/22 09:04:35;;;;;;;2.33;1.90;;;;;;;;;;5014258;28;20030;-55
2023/07/22 09:07:00;;;;;;;1.98;1.88;;;;;;;;;;5014744;28;20022;-55
2023/07/22 09:09:26;;;;;;;2.50;2.30;;;;;;;;;;5014669;28;20381;-55
2023/07/22 09:11:51;;;;;;;3.17;2.35;;;;;;;;;;5014326;28;20036;-55
2023/07/22 09:14:18;;;;;;;1.88;1.77;;;;;;;;;;5014038;28;20380;-55
2023/07/22 09:16:43;;;;;;;2.97;1.70;;;;;;;;;;5014057;28;20026;-55
2023/07/22 09:19:09;;;;;;;2.53;1.80;;;;;;;;;;5014586;28;20040;-55
2023/07/22 09:21:35;;;;;;;2.33;1.58;;;;;;;;;;5014031;28;20478;-55
2023/07/22 09:24:01;;;;;;;1.98;1.60;;;;;;;;;;5013951;28;20045;-55
2023/07/22 09:26:26;;;;;;;1.70;1.60;;;;;;;;;;5014089;28;20030;-55
2023/07/22 09:28:53;;;;;;;1.42;1.33;;;;;;;;;;5013896;28;20072;-55
2023/07/22 09:31:20;;;;;;;1.83;1.58;;;;;;;;;;5014229;28;20428;-55
2023/07/22 09:33:46;;;;;;;2.35;1.50;;;;;;;;;;5013820;28;20489;-55
2023/07/22 09:36:11;;;;;;;2.22;1.40;;;;;;;;;;5014091;28;20026;-55
2023/07/22 09:38:37;;;;;;;1.80;1.70;;;;;;;;;;5014231;28;20050;-55
2023/07/22 09:41:03;;;;;;;1.83;1.70;;;;;;;;;;5013791;28;20022;-55
2023/07/22 09:43:29;;;;;;;1.63;1.52;;;;;;;;;;5012617;28;20042;-55
2023/07/22 09:45:54;;;;;;;1.83;1.50;;;;;;;;;;5013799;28;20109;-57
2023/07/22 09:48:21;;;;;;;2.88;1.42;;;;;;;;;;5014259;28;20038;-55
2023/07/22 09:50:55;;;;;;;1.30;1.20;;;;;;;;;;5013743;28;20030;-55
2023/07/22 09:53:21;;;;;;;1.50;1.40;;;;;;;;;;5013901;28;20041;-55
2023/07/22 09:55:47;;;;;;;2.13;1.40;;;;;;;;;;5013667;28;20039;-55
2023/07/22 09:58:14;;;;;;;4.57;1.50;;;;;;;;;;5012975;28;20134;-55
2023/07/22 10:00:41;;;;;;;1.40;1.30;;;;;;;;;;5013631;28;20030;-55
2023/07/22 10:03:09;;;;;;;1.50;1.40;;;;;;;;;;5013865;28;20091;-55
2023/07/22 10:05:35;;;;;;;1.38;1.30;;;;;;;;;;5013566;28;20030;-55
2023/07/22 10:08:01;;;;;;;1.73;1.63;;;;;;;;;;5045420;28;20109;-55
2023/07/22 10:10:31;;;;;;;1.70;1.20;;;;;;;;;;5014063;28;20038;-55
2023/07/22 10:12:57;;;;;;;1.38;1.27;;;;;;;;;;5045658;28;20092;-55
2023/07/22 10:15:24;;;;;;;2.88;1.27;;;;;;;;;;5013497;28;20018;-55
2023/07/22 10:17:50;;;;;;;2.88;1.40;;;;;;;;;;5013481;28;20508;-55
2023/07/22 10:20:16;;;;;;;1.65;1.55;;;;;;;;;;5013718;28;20033;-55
2023/07/22 10:22:42;;;;;;;1.48;1.38;;;;;;;;;;5012151;28;20033;-55
2023/07/22 10:25:10;;;;;;;3.20;1.92;;;;;;;;;;5013657;28;20529;-55
2023/07/22 10:27:39;;;;;;;1.52;1.42;;;;;;;;;;5013360;28;20381;-55
2023/07/22 10:30:05;;;;;;;1.60;1.30;;;;;;;;;;5012157;28;20172;-55
2023/07/22 10:32:35;;;;;;;1.60;1.50;;;;;;;;;;5013603;28;20513;-55
2023/07/22 10:35:01;;;;;;;1.50;1.40;;;;;;;;;;5013594;28;20394;-55
2023/07/22 10:37:30;;;;;;;3.53;1.45;;;;;;;;;;5013725;28;20030;-55
2023/07/22 10:39:58;;;;;;;1.48;1.40;;;;;;;;;;5016834;28;20390;-57
2023/07/22 10:42:25;;;;;;;2.83;1.30;;;;;;;;;;5016832;28;20116;-55
2023/07/22 10:44:50;;;;;;;1.50;1.40;;;;;;;;;;5017056;28;20030;-55
2023/07/22 10:47:31;;;;;;;1.90;1.42;;;;;;;;;;5017003;28;20038;-55
2023/07/22 10:50:04;;;;;;;1.55;1.30;;;;;;;;;;5016729;28;20474;-55
2023/07/22 10:52:44;;;;;;;2.40;1.60;;;;;;;;;;5016696;28;20120;-55
2023/07/22 10:55:19;;;;;;;2.20;1.37;;;;;;;;;;5015354;28;20039;-55
2023/07/22 10:57:48;;;;;;;1.58;1.48;;;;;;;;;;5016580;28;20080;-55
2023/07/22 11:00:18;;;;;;;1.45;1.20;;;;;;;;;;5017037;28;20026;-55
2023/07/22 11:02:43;;;;;;;;;;;;;;;;;;5017134;28;20505;-55
2023/07/22 11:05:11;;;;;;;1.13;1.13;;;;;;;;;;5016745;28;20005;-55
2023/07/22 11:07:43;;;;;;;1.58;1.50;;;;;;;;;;5016379;28;20022;-55
2023/07/22 11:10:13;;;;;;;1.98;1.40;;;;;;;;;;5016589;28;20116;-57
2023/07/22 11:12:40;;;;;;;1.42;1.33;;;;;;;;;;5016248;28;20088;-57
2023/07/22 11:15:05;;;;;;;2.03;1.40;;;;;;;;;;5016789;28;20369;-57
2023/07/22 11:17:32;;;;;;;1.58;1.48;;;;;;;;;;5016473;28;20021;-55
2023/07/22 11:19:58;;;;;;;1.48;1.38;;;;;;;;;;5016144;28;20454;-55
2023/07/22 11:22:23;;;;;;;1.73;1.17;;;;;;;;;;5016037;28;20026;-55
2023/07/22 11:24:49;;;;;;;1.20;1.20;;;;;;;;;;5016107;28;20126;-55
2023/07/22 11:27:15;;;;;;;1.90;1.50;;;;;;;;;;5015900;28;20041;-55
2023/07/22 11:29:40;;;;;;;1.38;1.30;;;;;;;;;;5014657;28;20478;-55
2023/07/22 11:32:06;;;;;;;1.58;1.30;;;;;;;;;;5014648;28;20033;-55
2023/07/22 11:34:32;;;;;;;1.50;1.40;;;;;;;;;;5015743;28;20037;-55
2023/07/22 11:36:58;;;;;;;1.42;1.40;;;;;;;;;;5016105;28;20024;-55
2023/07/22 11:39:24;;;;;;;1.33;1.33;;;;;;;;;;5015692;28;20119;-55
2023/07/22 11:41:50;;;;;;;1.85;1.40;;;;;;;;;;5015730;28;20470;-55
2023/07/22 11:44:27;;;;;;;2.35;1.50;;;;;;;;;;5015698;28;20441;-55
2023/07/22 11:47:05;;;;;;;1.58;1.48;;;;;;;;;;5015645;28;20038;-55
2023/07/22 11:49:37;;;;;;;1.48;1.30;;;;;;;;;;5014979;28;20085;-55
2023/07/22 11:52:15;;;;;;;1.83;1.73;;;;;;;;;;5015509;28;20058;-55
2023/07/22 11:54:41;;;;;;;1.60;1.50;;;;;;;;;;5014130;28;20030;-55
2023/07/22 11:57:16;;;;;;;1.63;1.52;;;;;;;;;;5015463;28;20085;-55
2023/07/22 11:59:46;;;;;;;1.85;1.70;;;;;;;;;;5015359;28;20030;-55
2023/07/22 12:02:14;;;;;;;1.95;1.60;;;;;;;;;;5014090;28;20026;-55
2023/07/22 12:04:40;;;;;;;1.48;1.38;;;;;;;;;;5015582;28;20052;-59
2023/07/22 12:07:05;;;;;;;1.70;1.58;;;;;;;;;;5027558;23;20136;-55
2023/07/22 12:09:41;;;;;;;1.70;1.60;;;;;;;;;;5034543;23;20052;-55
2023/07/22 12:12:24;;;;;;;1.70;1.60;;;;;;;;;;5016702;23;20073;-61
2023/07/22 12:15:05;;;;;;;3.53;1.50;;;;;;;;;;5074589;23;20065;-61
2023/07/22 12:17:42;;;;;;;1.67;1.58;;;;;;;;;;5035254;23;20550;-61
2023/07/22 12:20:26;;;;;;;2.83;1.60;;;;;;;;;;5031889;23;20050;-61
2023/07/22 12:26:21;;;;;;;1.85;1.63;;;;;;;;;;5029883;23;20532;-61
2023/07/22 12:28:46;;;;;;;2.00;1.90;;;;;;;;;;5016693;23;20058;-61
2023/07/22 12:31:11;;;;;;;1.70;1.60;;;;;;;;;;5036877;23;20188;-61
2023/07/22 12:33:38;;;;;;;3.05;1.38;;;;;;;;;;5036894;23;20050;-56
2023/07/22 12:36:04;;;;;;;1.60;1.50;;;;;;;;;;5032804;28;20053;-57
2023/07/22 12:38:30;;;;;;;1.42;1.33;;;;;;;;;;5034690;28;20022;-57
2023/07/22 12:40:55;;;;;;;2.65;1.45;;;;;;;;;;5034394;28;20087;-55
2023/07/22 12:43:21;;;;;;;1.85;1.50;;;;;;;;;;5017054;28;20091;-55
2023/07/22 12:45:46;;;;;;;2.25;1.42;;;;;;;;;;5034607;28;20029;-55
2023/07/22 12:48:12;;;;;;;1.77;1.50;;;;;;;;;;5034634;28;20028;-55
2023/07/22 12:50:37;;;;;;;1.70;1.42;;;;;;;;;;5034532;28;20036;-55
2023/07/22 12:53:03;;;;;;;1.85;1.70;;;;;;;;;;5034719;28;20022;-59
2023/07/22 12:55:28;;;;;;;2.25;1.60;;;;;;;;;;5034160;28;20025;-60
2023/07/22 12:57:54;;;;;;;1.55;1.45;;;;;;;;;;5049764;28;20062;-61
2023/07/22 13:00:19;;;;;;;1.45;1.45;;;;;;;;;;5049173;28;20033;-62
2023/07/22 13:02:44;;;;;;;1.70;1.60;;;;;;;;;;5034609;28;20104;-62
2023/07/22 13:05:09;;;;;;;1.42;1.30;;;;;;;;;;5034251;28;20037;-61
2023/07/22 13:07:35;;;;;;;1.27;1.20;;;;;;;;;;5034254;28;20060;-62
2023/07/22 13:10:06;;;;;;;1.63;1.50;;;;;;;;;;5034206;28;20486;-62
2023/07/22 13:12:32;;;;;;;2.08;1.70;;;;;;;;;;5034175;28;20072;-62
2023/07/22 13:14:57;;;;;;;1.70;1.60;;;;;;;;;;5033814;28;20468;-61
2023/07/22 13:17:22;;;;;;;1.70;1.45;;;;;;;;;;5049163;28;20068;-61
2023/07/22 13:19:47;;;;;;;3.15;1.38;;;;;;;;;;5033764;28;20116;-60
2023/07/22 13:22:13;;;;;;;1.50;1.40;;;;;;;;;;5049133;28;20037;-60
2023/07/22 13:24:38;;;;;;;1.70;1.60;;;;;;;;;;5034271;28;20037;-60
2023/07/22 13:27:04;;;;;;;1.40;1.40;;;;;;;;;;5034002;28;20092;-60
2023/07/22 13:29:29;;;;;;;2.60;1.52;;;;;;;;;;5034208;28;20037;-60
2023/07/22 13:31:56;;;;;;;1.80;1.70;;;;;;;;;;5033941;28;20124;-60
2023/07/22 13:34:21;;;;;;;1.88;1.77;;;;;;;;;;5033388;28;20125;-60
2023/07/22 13:36:46;;;;;;;1.73;1.63;;;;;;;;;;5033578;28;20044;-61
2023/07/22 13:39:12;;;;;;;2.17;1.95;;;;;;;;;;5033564;28;20029;-60
2023/07/22 13:41:37;;;;;;;1.70;1.60;;;;;;;;;;5033540;28;20018;-60
2023/07/22 13:44:02;;;;;;;1.95;1.50;;;;;;;;;;5049769;28;20037;-60
2023/07/22 13:46:28;;;;;;;1.90;1.80;;;;;;;;;;5033508;28;20115;-60
2023/07/22 13:48:53;;;;;;;1.83;1.73;;;;;;;;;;5033767;28;20156;-60
2023/07/22 13:51:19;;;;;;;1.90;1.80;;;;;;;;;;5033735;28;20030;-60
2023/07/22 13:53:45;;;;;;;1.70;1.60;;;;;;;;;;5016218;28;20025;-60
2023/07/22 13:56:10;;;;;;;1.63;1.50;;;;;;;;;;5033664;28;20032;-60
2023/07/22 13:58:36;;;;;;;1.85;1.73;;;;;;;;;;5033366;28;20061;-60
2023/07/22 14:01:01;;;;;;;1.95;1.67;;;;;;;;;;5033666;28;20060;-60
2023/07/22 14:03:26;;;;;;;1.75;1.65;;;;;;;;;;5033606;28;20034;-60
2023/07/22 14:05:51;;;;;;;2.35;1.80;;;;;;;;;;5033617;28;20030;-60
2023/07/22 14:08:17;;;;;;;2.97;1.98;;;;;;;;;;5033283;28;20112;-60
2023/07/22 14:10:42;;;;;;;2.22;2.08;;;;;;;;;;5033298;28;20029;-60
2023/07/22 14:13:07;;;;;;;1.73;1.63;;;;;;;;;;5051322;28;20083;-60
2023/07/22 14:15:33;;;;;;;2.03;1.92;;;;;;;;;;5037408;28;20038;-60
2023/07/22 14:17:58;;;;;;;1.83;1.73;;;;;;;;;;5037655;28;20029;-60
2023/07/22 14:20:23;;;;;;;1.70;1.60;;;;;;;;;;5037058;28;20080;-61
2023/07/22 14:22:51;;;;;;;2.30;2.10;;;;;;;;;;5053015;28;20060;-60
2023/07/22 14:25:17;;;;;;;1.73;1.60;;;;;;;;;;5052356;28;20028;-60
2023/07/22 14:27:42;;;;;;;3.33;1.70;;;;;;;;;;5037190;28;20025;-60
2023/07/22 14:30:08;;;;;;;2.03;1.73;;;;;;;;;;5036884;28;20029;-61
2023/07/22 14:32:33;;;;;;;1.80;1.70;;;;;;;;;;5037099;28;20072;-60
2023/07/22 14:34:58;;;;;;;2.08;1.98;;;;;;;;;;5036485;28;20050;-60
2023/07/22 14:37:24;;;;;;;1.80;1.70;;;;;;;;;;5036791;28;20033;-61
2023/07/22 14:39:49;;;;;;;1.80;1.70;;;;;;;;;;5052076;28;20030;-61